Time;durP1;ratioP1;P1;durP2;ratioP2;P2;SDS_P1;SDS_P2;PMS_P1;PMS_P2;Temp;Humidity;BMP_temperature;BMP_pressure;BME280_temperature;BME280_humidity;BME280_pressure;Samples;Min_cycle;Max_cycle;Signal;HPM_P1;HPM_P2
2021/03/26 00:01:41;;;;;;;16.23;7.70;;;;;;;;;;5078465;28;32162;-69
2021/03/26 00:04:07;;;;;;;23.05;8.23;;;;;;;;;;5085451;28;31348;-69
2021/03/26 00:06:35;;;;;;;16.58;8.05;;;;;;;;;;5097310;28;31790;-68
2021/03/26 00:09:01;;;;;;;14.80;8.25;;;;;;;;;;5087472;28;31561;-68
2021/03/26 00:11:29;;;;;;;20.23;9.85;;;;;;;;;;5077286;28;33364;-69
2021/03/26 00:13:55;;;;;;;23.77;10.10;;;;;;;;;;5077905;28;32478;-68
2021/03/26 00:16:21;;;;;;;18.42;10.10;;;;;;;;;;5084595;28;32502;-70
2021/03/26 00:18:47;;;;;;;19.10;11.05;;;;;;;;;;5089681;28;31844;-69
2021/03/26 00:21:13;;;;;;;21.10;10.45;;;;;;;;;;5075320;28;31967;-69
2021/03/26 00:23:39;;;;;;;21.33;10.02;;;;;;;;;;5077197;28;32403;-69
2021/03/26 00:26:05;;;;;;;24.38;9.85;;;;;;;;;;5077551;28;32144;-69
2021/03/26 00:28:31;;;;;;;25.52;10.88;;;;;;;;;;5077716;28;32059;-69
2021/03/26 00:30:56;;;;;;;18.95;10.90;;;;;;;;;;5076071;28;31675;-69
2021/03/26 00:33:22;;;;;;;27.20;11.63;;;;;;;;;;5096373;28;35340;-72
2021/03/26 00:35:48;;;;;;;20.83;11.95;;;;;;;;;;5097177;28;32090;-71
2021/03/26 00:38:14;;;;;;;22.05;10.48;;;;;;;;;;5093909;28;32011;-71
2021/03/26 00:40:40;;;;;;;20.42;10.82;;;;;;;;;;5078032;28;31473;-71
2021/03/26 00:43:06;;;;;;;23.25;11.35;;;;;;;;;;5077592;28;32555;-71
2021/03/26 00:45:33;;;;;;;22.95;11.82;;;;;;;;;;5075865;28;31333;-72
2021/03/26 00:47:59;;;;;;;19.77;11.30;;;;;;;;;;5076077;28;30516;-71
2021/03/26 00:50:29;;;;;;;30.40;11.85;;;;;;;;;;5079473;28;32884;-69
2021/03/26 00:52:55;;;;;;;28.50;11.38;;;;;;;;;;5095318;28;31389;-70
2021/03/26 00:55:21;;;;;;;22.45;12.00;;;;;;;;;;5097102;28;32127;-69
2021/03/26 00:57:46;;;;;;;24.05;12.18;;;;;;;;;;5096495;28;32015;-69
2021/03/26 01:00:15;;;;;;;26.88;13.18;;;;;;;;;;5088316;28;32090;-69
2021/03/26 01:02:40;;;;;;;24.30;11.73;;;;;;;;;;5097532;28;33566;-69
2021/03/26 01:05:11;;;;;;;22.10;11.80;;;;;;;;;;5094004;28;32074;-69
2021/03/26 01:07:36;;;;;;;26.13;12.75;;;;;;;;;;5096954;28;31384;-70
2021/03/26 01:10:04;;;;;;;22.85;11.77;;;;;;;;;;5097339;28;32594;-70
2021/03/26 01:12:30;;;;;;;24.88;12.45;;;;;;;;;;5092854;28;31121;-70
2021/03/26 01:14:56;;;;;;;20.98;11.13;;;;;;;;;;5097768;28;30712;-70
2021/03/26 01:17:22;;;;;;;29.98;14.50;;;;;;;;;;5094744;28;30552;-71
2021/03/26 01:19:48;;;;;;;28.00;11.77;;;;;;;;;;5082627;28;29894;-70
2021/03/26 01:22:14;;;;;;;23.80;11.90;;;;;;;;;;5083569;28;30975;-70
2021/03/26 01:24:40;;;;;;;24.02;12.15;;;;;;;;;;5095491;28;32321;-70
2021/03/26 01:27:06;;;;;;;29.20;12.52;;;;;;;;;;5095247;28;30437;-72
2021/03/26 01:29:41;;;;;;;26.38;12.00;;;;;;;;;;5081495;28;31077;-71
2021/03/26 01:32:09;;;;;;;22.65;11.88;;;;;;;;;;5074193;28;30391;-69
2021/03/26 01:34:38;;;;;;;27.33;13.18;;;;;;;;;;5095034;28;31882;-70
2021/03/26 01:37:05;;;;;;;24.30;13.20;;;;;;;;;;5095300;28;31779;-70
2021/03/26 01:39:41;;;;;;;27.52;13.73;;;;;;;;;;5082565;27;30529;-72
2021/03/26 01:42:22;;;;;;;24.42;11.80;;;;;;;;;;5074785;28;32164;-72
2021/03/26 01:44:48;;;;;;;27.33;12.60;;;;;;;;;;5076080;28;31602;-72
2021/03/26 01:47:20;;;;;;;22.35;11.88;;;;;;;;;;5078518;28;30657;-72
2021/03/26 01:49:45;;;;;;;26.00;13.60;;;;;;;;;;5078966;28;36730;-72
2021/03/26 01:52:11;;;;;;;25.95;13.05;;;;;;;;;;5050175;28;102106;-71
2021/03/26 01:54:37;;;;;;;24.48;12.73;;;;;;;;;;5090660;28;31706;-71
2021/03/26 01:57:09;;;;;;;22.23;10.60;;;;;;;;;;5086398;28;30833;-72
2021/03/26 01:59:40;;;;;;;28.50;13.05;;;;;;;;;;5079516;28;32125;-71
2021/03/26 02:02:09;;;;;;;23.17;12.40;;;;;;;;;;5086503;28;32689;-70
2021/03/26 02:04:56;;;;;;;26.55;13.48;;;;;;;;;;5099582;28;31848;-71
2021/03/26 02:07:40;;;;;;;26.92;12.75;;;;;;;;;;5100152;28;32415;-71
2021/03/26 02:10:11;;;;;;;24.83;13.18;;;;;;;;;;5097857;28;30516;-71
2021/03/26 02:12:37;;;;;;;26.35;13.20;;;;;;;;;;5097918;28;31047;-70
2021/03/26 02:15:18;;;;;;;26.48;13.50;;;;;;;;;;5098560;28;30139;-71
2021/03/26 02:17:44;;;;;;;30.23;14.55;;;;;;;;;;5080891;28;30433;-71
2021/03/26 02:20:28;;;;;;;26.08;13.05;;;;;;;;;;5077415;28;31303;-72
2021/03/26 02:22:57;;;;;;;24.25;13.65;;;;;;;;;;5079040;28;30968;-71
2021/03/26 02:25:25;;;;;;;30.20;13.52;;;;;;;;;;5078202;28;30701;-71
2021/03/26 02:27:51;;;;;;;29.90;14.40;;;;;;;;;;5092350;28;32001;-71
2021/03/26 02:30:20;;;;;;;34.08;12.65;;;;;;;;;;5079735;28;30816;-71
2021/03/26 02:32:47;;;;;;;32.85;13.68;;;;;;;;;;5078644;28;31027;-71
2021/03/26 02:35:31;;;;;;;24.75;13.23;;;;;;;;;;5097438;28;31076;-71
2021/03/26 02:38:27;;;;;;;27.15;14.10;;;;;;;;;;5007017;28;112813;-71
2021/03/26 02:40:59;;;;;;;33.92;13.63;;;;;;;;;;5011210;28;128374;-71
2021/03/26 02:43:25;;;;;;;25.75;14.05;;;;;;;;;;5078159;28;30881;-71
2021/03/26 02:46:06;;;;;;;33.38;14.50;;;;;;;;;;5078318;28;31159;-71
2021/03/26 02:48:38;;;;;;;29.00;13.63;;;;;;;;;;5077301;28;30521;-71
2021/03/26 02:51:24;;;;;;;31.33;13.80;;;;;;;;;;5093058;28;32609;-71
2021/03/26 02:54:11;;;;;;;26.73;13.15;;;;;;;;;;5077252;28;31034;-71
2021/03/26 02:56:42;;;;;;;24.50;13.25;;;;;;;;;;5097314;28;31603;-71
2021/03/26 02:59:13;;;;;;;30.15;14.00;;;;;;;;;;5088804;28;31657;-71
2021/03/26 03:01:45;;;;;;;27.38;13.32;;;;;;;;;;5078124;28;30166;-72
2021/03/26 03:04:23;;;;;;;25.35;12.93;;;;;;;;;;5077780;28;31358;-72
2021/03/26 03:07:01;;;;;;;26.90;12.43;;;;;;;;;;5081432;28;31638;-72
2021/03/26 03:09:42;;;;;;;25.17;11.95;;;;;;;;;;5084258;28;30944;-72
2021/03/26 03:12:16;;;;;;;27.60;13.38;;;;;;;;;;5077569;28;32114;-72
2021/03/26 03:14:53;;;;;;;27.75;12.25;;;;;;;;;;5078326;28;32684;-72
2021/03/26 03:17:21;;;;;;;27.80;12.27;;;;;;;;;;5022198;28;100038;-72
2021/03/26 03:19:56;;;;;;;30.48;12.52;;;;;;;;;;4995090;28;109509;-72
2021/03/26 03:22:41;;;;;;;23.80;11.10;;;;;;;;;;4988707;28;125706;-72
2021/03/26 03:25:16;;;;;;;24.23;12.30;;;;;;;;;;5008889;28;126295;-70
2021/03/26 03:28:03;;;;;;;24.23;12.20;;;;;;;;;;5038685;28;108246;-69
2021/03/26 03:30:37;;;;;;;24.50;11.52;;;;;;;;;;5077120;28;30534;-71
2021/03/26 03:33:24;;;;;;;35.35;11.65;;;;;;;;;;5077537;28;31683;-71
2021/03/26 03:35:58;;;;;;;20.13;10.93;;;;;;;;;;5096734;28;31097;-70
2021/03/26 03:38:46;;;;;;;29.48;12.52;;;;;;;;;;5095972;28;32269;-70
2021/03/26 03:41:20;;;;;;;22.88;10.55;;;;;;;;;;5095825;28;30625;-70
2021/03/26 03:43:51;;;;;;;21.10;10.07;;;;;;;;;;5084435;28;32123;-70
2021/03/26 03:46:56;;;;;;;20.95;10.75;;;;;;;;;;5077136;28;33542;-70
2021/03/26 03:49:55;;;;;;;22.02;11.07;;;;;;;;;;5066674;28;31663;-70
2021/03/26 03:52:31;;;;;;;21.95;10.52;;;;;;;;;;5057603;28;32807;-71
2021/03/26 03:55:00;;;;;;;22.88;11.13;;;;;;;;;;5086562;28;30931;-70
2021/03/26 03:57:42;;;;;;;23.58;11.40;;;;;;;;;;5094287;28;31046;-70
2021/03/26 04:00:08;;;;;;;24.55;11.50;;;;;;;;;;5053333;28;102288;-70
2021/03/26 04:02:49;;;;;;;27.08;10.95;;;;;;;;;;4988177;28;112529;-71
2021/03/26 04:05:25;;;;;;;24.85;11.05;;;;;;;;;;5062747;28;128126;-70
2021/03/26 04:08:03;;;;;;;19.25;10.77;;;;;;;;;;5075510;28;31239;-69
2021/03/26 04:10:31;;;;;;;20.65;10.52;;;;;;;;;;5085601;28;31997;-70
2021/03/26 04:13:02;;;;;;;23.60;10.52;;;;;;;;;;5093640;28;31655;-69
2021/03/26 04:15:34;;;;;;;20.45;10.73;;;;;;;;;;5094603;28;32883;-69
2021/03/26 04:18:03;;;;;;;23.27;11.35;;;;;;;;;;5095339;28;31084;-71
2021/03/26 04:21:00;;;;;;;25.35;11.13;;;;;;;;;;5075375;28;32546;-69
2021/03/26 04:23:43;;;;;;;23.13;11.02;;;;;;;;;;5076722;28;30327;-71
2021/03/26 04:26:30;;;;;;;24.70;11.57;;;;;;;;;;5074766;28;31680;-68
2021/03/26 04:29:37;;;;;;;28.55;11.68;;;;;;;;;;5088118;28;33181;-67
2021/03/26 04:32:08;;;;;;;21.70;10.27;;;;;;;;;;5065897;28;30760;-71
2021/03/26 04:34:37;;;;;;;22.60;11.13;;;;;;;;;;5091039;28;32900;-70
2021/03/26 04:37:23;;;;;;;24.52;10.95;;;;;;;;;;5094609;28;33026;-71
2021/03/26 04:39:55;;;;;;;28.95;11.43;;;;;;;;;;5073344;28;31375;-72
2021/03/26 04:42:27;;;;;;;21.23;10.32;;;;;;;;;;5092976;28;32234;-72
2021/03/26 04:45:02;;;;;;;21.42;10.93;;;;;;;;;;5096093;28;30482;-71
2021/03/26 04:47:44;;;;;;;21.55;10.73;;;;;;;;;;5092569;28;30457;-71
2021/03/26 04:50:26;;;;;;;19.88;10.60;;;;;;;;;;5077080;28;32249;-71
2021/03/26 04:52:55;;;;;;;24.83;10.70;;;;;;;;;;5076437;28;31333;-71
2021/03/26 04:55:23;;;;;;;25.83;11.73;;;;;;;;;;5076479;28;32916;-70
2021/03/26 04:57:56;;;;;;;23.63;11.10;;;;;;;;;;5077001;28;32859;-71
2021/03/26 05:00:30;;;;;;;26.33;11.75;;;;;;;;;;5076124;28;32642;-71
2021/03/26 05:03:05;;;;;;;24.70;11.48;;;;;;;;;;5096535;28;32030;-70
2021/03/26 05:05:35;;;;;;;27.20;12.48;;;;;;;;;;5094698;28;32876;-70
2021/03/26 05:08:14;;;;;;;26.63;11.43;;;;;;;;;;5092323;28;30440;-71
2021/03/26 05:11:02;;;;;;;32.35;12.43;;;;;;;;;;5076162;28;32276;-70
2021/03/26 05:13:30;;;;;;;31.30;12.27;;;;;;;;;;5075411;28;30659;-70
2021/03/26 05:16:03;;;;;;;26.20;11.75;;;;;;;;;;5079698;28;32973;-70
2021/03/26 05:18:55;;;;;;;24.98;11.65;;;;;;;;;;5089445;28;33060;-71
2021/03/26 05:21:26;;;;;;;28.25;11.80;;;;;;;;;;5088087;28;31058;-70
2021/03/26 05:24:39;;;;;;;25.88;12.00;;;;;;;;;;5086368;28;32775;-71
2021/03/26 05:27:28;;;;;;;24.55;11.70;;;;;;;;;;5097974;28;32310;-71
2021/03/26 05:29:55;;;;;;;20.00;10.98;;;;;;;;;;5106187;28;30670;-71
2021/03/26 05:32:37;;;;;;;29.50;12.40;;;;;;;;;;5114782;28;31089;-71
2021/03/26 05:35:05;;;;;;;35.40;15.00;;;;;;;;;;5109477;28;32886;-71
2021/03/26 05:37:46;;;;;;;30.65;13.48;;;;;;;;;;5101033;28;30454;-71
2021/03/26 05:40:46;;;;;;;26.63;12.18;;;;;;;;;;5088513;28;32484;-71
2021/03/26 05:44:03;;;;;;;22.88;12.40;;;;;;;;;;5091062;28;33872;-71
2021/03/26 05:46:43;;;;;;;31.08;13.15;;;;;;;;;;5091089;28;32039;-70
2021/03/26 05:49:48;;;;;;;23.15;11.73;;;;;;;;;;5106504;28;29573;-71
2021/03/26 05:52:15;;;;;;;31.42;13.10;;;;;;;;;;5079547;28;30985;-71
2021/03/26 05:54:47;;;;;;;27.30;13.45;;;;;;;;;;5067549;28;99781;-71
2021/03/26 05:57:15;;;;;;;;;;;;;;;;;;5038108;28;110495;-70
2021/03/26 06:00:02;;;;;;;30.48;12.95;;;;;;;;;;5079555;28;31084;-71
2021/03/26 06:02:51;;;;;;;29.42;13.02;;;;;;;;;;5081103;28;32568;-70
2021/03/26 06:05:52;;;;;;;28.43;12.07;;;;;;;;;;5079976;28;33267;-68
2021/03/26 06:08:47;;;;;;;25.60;11.70;;;;;;;;;;5085793;28;32772;-69
2021/03/26 06:11:54;;;;;;;30.20;12.43;;;;;;;;;;5089980;28;31492;-69
2021/03/26 06:14:51;;;;;;;28.67;13.38;;;;;;;;;;5055438;28;102608;-69
2021/03/26 06:18:01;;;;;;;22.05;12.40;;;;;;;;;;5092119;28;32105;-69
2021/03/26 06:21:05;;;;;;;23.77;12.52;;;;;;;;;;5087944;28;31999;-70
2021/03/26 06:24:05;;;;;;;24.13;11.35;;;;;;;;;;5084767;28;32512;-70
2021/03/26 06:26:45;;;;;;;27.38;12.70;;;;;;;;;;5096427;28;32023;-69
2021/03/26 06:29:32;;;;;;;26.83;11.85;;;;;;;;;;5089239;28;32763;-68
2021/03/26 06:32:27;;;;;;;28.08;12.60;;;;;;;;;;5086278;28;32265;-69
2021/03/26 06:35:25;;;;;;;26.77;10.50;;;;;;;;;;5086702;28;31448;-70
2021/03/26 06:38:00;;;;;;;24.77;10.50;;;;;;;;;;5090398;28;32055;-68
2021/03/26 06:40:41;;;;;;;10.88;4.18;;;;;;;;;;5085993;28;32636;-69
2021/03/26 06:43:20;;;;;;;25.40;11.85;;;;;;;;;;5079267;28;32261;-71
2021/03/26 06:46:08;;;;;;;30.08;11.85;;;;;;;;;;5079537;28;31640;-71
2021/03/26 06:48:43;;;;;;;22.73;11.30;;;;;;;;;;5079859;28;32048;-70
2021/03/26 06:51:26;;;;;;;22.20;9.55;;;;;;;;;;5079838;28;33278;-70
2021/03/26 06:54:00;;;;;;;29.95;13.88;;;;;;;;;;5079763;28;32248;-71
2021/03/26 06:56:42;;;;;;;35.03;12.65;;;;;;;;;;5080302;28;31743;-70
2021/03/26 06:59:08;;;;;;;27.60;11.70;;;;;;;;;;5079491;28;31961;-71
2021/03/26 07:01:40;;;;;;;26.17;11.70;;;;;;;;;;5079545;28;32713;-70
2021/03/26 07:04:13;;;;;;;24.80;11.35;;;;;;;;;;5079854;28;33075;-69
2021/03/26 07:06:55;;;;;;;30.92;10.63;;;;;;;;;;5080226;28;31959;-71
2021/03/26 07:09:36;;;;;;;17.25;8.52;;;;;;;;;;5080022;28;32095;-72
2021/03/26 07:12:34;;;;;;;17.35;8.00;;;;;;;;;;5080302;28;33672;-71
2021/03/26 07:15:02;;;;;;;22.27;9.50;;;;;;;;;;5070628;28;32229;-69
2021/03/26 07:17:43;;;;;;;24.67;9.20;;;;;;;;;;5089124;28;32934;-71
2021/03/26 07:20:08;;;;;;;19.25;9.30;;;;;;;;;;5090128;28;31953;-71
2021/03/26 07:22:37;;;;;;;24.20;10.13;;;;;;;;;;5087711;28;32489;-72
2021/03/26 07:25:14;;;;;;;23.20;10.50;;;;;;;;;;5082076;28;32201;-71
2021/03/26 07:27:40;;;;;;;25.85;9.77;;;;;;;;;;5078481;28;31955;-71
2021/03/26 07:30:24;;;;;;;21.38;9.73;;;;;;;;;;5077073;28;31991;-71
2021/03/26 07:33:01;;;;;;;14.93;7.30;;;;;;;;;;5090922;28;33565;-71
2021/03/26 07:35:39;;;;;;;20.63;8.98;;;;;;;;;;5094765;28;31513;-71
2021/03/26 07:38:13;;;;;;;24.52;10.25;;;;;;;;;;5095122;28;32873;-72
2021/03/26 07:40:42;;;;;;;19.23;8.43;;;;;;;;;;5085381;28;32011;-71
2021/03/26 07:43:21;;;;;;;24.67;9.15;;;;;;;;;;5076528;28;33304;-72
2021/03/26 07:45:47;;;;;;;22.00;8.80;;;;;;;;;;5076609;28;33057;-72
2021/03/26 07:48:22;;;;;;;21.25;9.93;;;;;;;;;;5089634;28;32312;-70
2021/03/26 07:50:58;;;;;;;20.98;8.98;;;;;;;;;;5082541;28;32106;-70
2021/03/26 07:53:30;;;;;;;21.60;8.95;;;;;;;;;;5076210;28;32117;-71
2021/03/26 07:56:05;;;;;;;15.57;6.20;;;;;;;;;;5087888;28;31943;-71
2021/03/26 07:58:30;;;;;;;16.33;7.70;;;;;;;;;;5096507;28;32934;-71
2021/03/26 08:01:35;;;;;;;20.10;8.70;;;;;;;;;;5083437;28;32359;-69
2021/03/26 08:04:09;;;;;;;23.65;8.73;;;;;;;;;;5102974;27;32308;-70
2021/03/26 08:06:53;;;;;;;21.42;8.32;;;;;;;;;;5110799;28;32434;-70
2021/03/26 08:09:18;;;;;;;;;;;;;;;;;;5076497;28;102176;-70
2021/03/26 08:12:02;;;;;;;24.88;8.57;;;;;;;;;;5097414;27;31926;-70
2021/03/26 08:14:31;;;;;;;15.07;7.65;;;;;;;;;;5075549;28;32934;-69
2021/03/26 08:16:59;;;;;;;29.58;9.32;;;;;;;;;;5087686;28;32659;-69
2021/03/26 08:19:40;;;;;;;27.45;8.95;;;;;;;;;;5097241;28;31699;-69
2021/03/26 08:22:06;;;;;;;12.40;6.20;;;;;;;;;;5082823;28;32012;-71
2021/03/26 08:24:50;;;;;;;17.65;7.25;;;;;;;;;;5086570;28;31822;-71
2021/03/26 08:27:16;;;;;;;14.85;5.85;;;;;;;;;;5089343;28;33042;-70
2021/03/26 08:29:53;;;;;;;18.00;7.63;;;;;;;;;;5089915;28;32587;-70
2021/03/26 08:32:25;;;;;;;16.83;7.50;;;;;;;;;;5080565;28;31794;-71
2021/03/26 08:35:10;;;;;;;16.90;7.30;;;;;;;;;;5064257;28;31544;-70
2021/03/26 08:37:55;;;;;;;10.40;5.55;;;;;;;;;;5070233;28;31807;-71
2021/03/26 08:40:31;;;;;;;18.58;6.50;;;;;;;;;;5064076;28;30571;-70
2021/03/26 08:42:56;;;;;;;9.30;5.88;;;;;;;;;;5063939;28;31541;-71
2021/03/26 08:45:33;;;;;;;17.23;7.10;;;;;;;;;;5066300;28;32611;-71
2021/03/26 08:48:17;;;;;;;14.98;6.85;;;;;;;;;;5068998;28;31877;-69
2021/03/26 08:50:43;;;;;;;17.42;6.50;;;;;;;;;;5070547;28;31801;-70
2021/03/26 08:53:27;;;;;;;11.07;5.38;;;;;;;;;;5069984;28;31021;-71
2021/03/26 08:56:04;;;;;;;9.85;5.13;;;;;;;;;;5068119;28;32191;-70
2021/03/26 08:58:34;;;;;;;17.67;5.75;;;;;;;;;;5067346;28;32838;-69
2021/03/26 09:01:09;;;;;;;16.63;5.88;;;;;;;;;;5066100;28;32041;-71
2021/03/26 09:03:48;;;;;;;19.50;5.57;;;;;;;;;;5066092;28;32163;-71
2021/03/26 09:06:23;;;;;;;14.57;6.40;;;;;;;;;;5067576;28;32022;-71
2021/03/26 09:09:01;;;;;;;12.15;6.10;;;;;;;;;;5069159;28;32812;-71
2021/03/26 09:11:36;;;;;;;10.80;4.28;;;;;;;;;;5067046;28;32420;-71
2021/03/26 09:14:28;;;;;;;15.55;5.82;;;;;;;;;;5067360;28;31690;-71
2021/03/26 09:16:57;;;;;;;12.27;5.82;;;;;;;;;;5066066;28;32479;-71
2021/03/26 09:19:22;;;;;;;11.23;4.70;;;;;;;;;;5070003;28;32285;-70
2021/03/26 09:21:51;;;;;;;10.93;3.58;;;;;;;;;;5068866;28;33267;-71
2021/03/26 09:24:19;;;;;;;20.65;5.05;;;;;;;;;;5067455;28;32117;-71
2021/03/26 09:26:59;;;;;;;11.07;3.80;;;;;;;;;;5069716;28;32517;-70
2021/03/26 09:29:43;;;;;;;9.40;4.93;;;;;;;;;;5069386;28;32676;-70
2021/03/26 09:32:14;;;;;;;153.55;95.10;;;;;;;;;;5073854;28;31911;-70
2021/03/26 09:34:44;;;;;;;12.90;4.38;;;;;;;;;;5068764;28;32062;-70
2021/03/26 09:37:42;;;;;;;11.93;9.07;;;;;;;;;;5067637;28;33599;-70
2021/03/26 09:40:30;;;;;;;21.20;5.50;;;;;;;;;;5065113;28;32282;-71
2021/03/26 09:43:08;;;;;;;17.15;13.07;;;;;;;;;;5065139;28;32960;-70
2021/03/26 09:45:39;;;;;;;3.80;1.95;;;;;;;;;;5070300;28;31840;-69
2021/03/26 09:48:21;;;;;;;17.48;15.80;;;;;;;;;;5067192;28;32320;-69
2021/03/26 09:50:55;;;;;;;22.67;20.83;;;;;;;;;;5067542;28;32192;-70
2021/03/26 09:53:21;;;;;;;23.42;21.25;;;;;;;;;;5071553;28;32991;-69
2021/03/26 09:55:47;;;;;;;22.90;19.80;;;;;;;;;;5067302;28;32074;-69
2021/03/26 09:58:19;;;;;;;57.67;52.53;;;;;;;;;;5064550;28;32262;-70
2021/03/26 10:00:54;;;;;;;11.85;10.73;;;;;;;;;;5057845;28;100051;-71
2021/03/26 10:03:27;;;;;;;7.68;6.03;;;;;;;;;;4980376;28;111409;-70
2021/03/26 10:05:55;;;;;;;12.13;6.68;;;;;;;;;;4978731;28;127319;-71
2021/03/26 10:11:29;;;;;;;25.30;23.13;;;;;;;;;;4980614;28;108936;-69
2021/03/26 10:13:55;;;;;;;91.93;74.10;;;;;;;;;;4979897;28;111664;-69
2021/03/26 10:16:24;;;;;;;77.35;66.85;;;;;;;;;;4980995;28;128904;-69
2021/03/26 10:18:58;;;;;;;80.05;66.95;;;;;;;;;;4979972;28;128862;-69
2021/03/26 10:21:24;;;;;;;;;;;;;;;;;;4983542;28;109987;-68
2021/03/26 10:23:54;;;;;;;9.50;6.00;;;;;;;;;;4982238;28;111237;-69
2021/03/26 10:26:38;;;;;;;34.42;31.77;;;;;;;;;;4980192;28;130610;-69
2021/03/26 10:29:03;;;;;;;9.63;8.25;;;;;;;;;;5043710;28;130457;-69
2021/03/26 10:31:31;;;;;;;13.98;12.68;;;;;;;;;;5070868;28;31987;-69
2021/03/26 10:33:59;;;;;;;12.82;6.65;;;;;;;;;;5070687;28;32687;-69
2021/03/26 10:36:37;;;;;;;13.18;9.35;;;;;;;;;;5069425;28;31681;-69
2021/03/26 10:39:02;;;;;;;7.65;6.32;;;;;;;;;;5071967;28;32663;-71
2021/03/26 10:41:55;;;;;;;11.82;7.13;;;;;;;;;;5068353;28;32206;-73
2021/03/26 10:44:21;;;;;;;18.65;16.98;;;;;;;;;;5065742;28;32181;-70
2021/03/26 10:46:55;;;;;;;13.02;11.80;;;;;;;;;;5072564;28;32919;-68
2021/03/26 10:49:26;;;;;;;11.02;7.78;;;;;;;;;;5071807;28;33537;-70
2021/03/26 10:51:55;;;;;;;6.95;5.68;;;;;;;;;;5070997;28;31569;-70
2021/03/26 10:54:32;;;;;;;7.35;3.20;;;;;;;;;;5070641;28;31970;-69
2021/03/26 10:57:01;;;;;;;4.35;2.13;;;;;;;;;;5071813;28;32452;-69
2021/03/26 10:59:35;;;;;;;10.75;2.10;;;;;;;;;;5070733;28;33612;-70
2021/03/26 11:02:24;;;;;;;8.77;2.17;;;;;;;;;;5069570;28;32102;-69
2021/03/26 11:04:59;;;;;;;4.75;1.67;;;;;;;;;;5068533;28;31746;-70
2021/03/26 11:07:27;;;;;;;5.38;2.00;;;;;;;;;;5068518;28;32139;-71
2021/03/26 11:09:59;;;;;;;11.23;2.63;;;;;;;;;;5070574;28;30741;-71
2021/03/26 11:12:28;;;;;;;4.00;2.50;;;;;;;;;;5070237;28;31797;-71
2021/03/26 11:14:59;;;;;;;5.35;1.52;;;;;;;;;;5071631;28;31117;-70
2021/03/26 11:17:29;;;;;;;1.52;0.88;;;;;;;;;;5068067;28;31168;-71
2021/03/26 11:19:57;;;;;;;4.10;1.67;;;;;;;;;;5072619;28;32454;-71
2021/03/26 11:22:25;;;;;;;3.38;1.77;;;;;;;;;;5070717;28;33030;-71
2021/03/26 11:25:11;;;;;;;6.80;3.08;;;;;;;;;;5070279;28;31751;-71
2021/03/26 11:27:50;;;;;;;4.60;2.53;;;;;;;;;;4982625;28;126900;-71
2021/03/26 11:30:25;;;;;;;3.28;2.00;;;;;;;;;;4980491;28;129883;-71
2021/03/26 11:33:10;;;;;;;7.25;2.42;;;;;;;;;;4982397;28;111630;-71
2021/03/26 11:35:39;;;;;;;5.32;1.60;;;;;;;;;;4981356;28;110580;-71
2021/03/26 11:38:33;;;;;;;6.05;2.58;;;;;;;;;;5034892;28;130194;-71
2021/03/26 11:41:15;;;;;;;7.75;1.50;;;;;;;;;;5059772;28;32987;-71
2021/03/26 11:43:46;;;;;;;5.32;2.00;;;;;;;;;;5072196;28;33254;-71
2021/03/26 11:46:17;;;;;;;3.42;1.33;;;;;;;;;;5070428;28;32196;-71
2021/03/26 11:48:45;;;;;;;3.67;1.02;;;;;;;;;;5069509;28;32048;-71
2021/03/26 11:51:17;;;;;;;4.90;1.60;;;;;;;;;;5069309;28;32637;-71
2021/03/26 11:54:02;;;;;;;4.50;1.02;;;;;;;;;;5070533;28;32053;-72
2021/03/26 11:56:36;;;;;;;2.53;0.80;;;;;;;;;;5072690;28;31852;-71
2021/03/26 11:59:10;;;;;;;1.35;0.55;;;;;;;;;;5072229;28;32877;-71
2021/03/26 12:01:57;;;;;;;4.53;0.88;;;;;;;;;;5072741;28;32513;-70
2021/03/26 12:04:30;;;;;;;3.08;1.10;;;;;;;;;;5070988;28;33145;-72
2021/03/26 12:06:58;;;;;;;;;;;;;;;;;;5074989;28;30660;-70
2021/03/26 12:09:31;;;;;;;9.00;1.15;;;;;;;;;;5072070;28;32164;-71
2021/03/26 12:12:09;;;;;;;3.35;1.30;;;;;;;;;;5067458;28;33985;-70
2021/03/26 12:14:45;;;;;;;1.95;1.08;;;;;;;;;;5068278;28;31359;-70
2021/03/26 12:17:31;;;;;;;2.92;1.33;;;;;;;;;;5065898;28;30998;-69
2021/03/26 12:20:00;;;;;;;1.63;0.98;;;;;;;;;;5069026;28;32091;-70
2021/03/26 12:22:30;;;;;;;3.80;1.27;;;;;;;;;;5068185;28;33572;-70
2021/03/26 12:25:21;;;;;;;3.28;0.50;;;;;;;;;;5069064;28;31914;-70
2021/03/26 12:27:49;;;;;;;2.70;1.20;;;;;;;;;;5069514;28;31425;-71
2021/03/26 12:30:21;;;;;;;2.80;0.98;;;;;;;;;;5070544;28;31540;-70
2021/03/26 12:32:49;;;;;;;0.43;0.40;;;;;;;;;;5070168;28;32291;-71
2021/03/26 12:35:14;;;;;;;1.48;0.75;;;;;;;;;;5070089;28;31914;-71
2021/03/26 12:37:46;;;;;;;4.35;2.05;;;;;;;;;;5070805;28;31593;-70
2021/03/26 12:40:32;;;;;;;2.08;0.73;;;;;;;;;;5071419;28;32143;-71
2021/03/26 12:43:04;;;;;;;0.77;0.60;;;;;;;;;;5071905;28;31871;-71
2021/03/26 12:45:39;;;;;;;1.80;1.15;;;;;;;;;;5070769;28;32178;-71
2021/03/26 12:48:25;;;;;;;3.63;1.27;;;;;;;;;;5070791;28;31860;-71
2021/03/26 12:50:53;;;;;;;3.30;1.25;;;;;;;;;;5070678;28;32026;-70
2021/03/26 12:53:29;;;;;;;5.03;1.17;;;;;;;;;;5072611;28;33588;-70
2021/03/26 12:56:02;;;;;;;3.03;0.75;;;;;;;;;;5072126;28;33047;-70
2021/03/26 12:58:30;;;;;;;1.92;0.30;;;;;;;;;;5071641;28;32026;-70
2021/03/26 13:01:02;;;;;;;0.68;0.65;;;;;;;;;;5071713;28;32721;-70
2021/03/26 13:03:37;;;;;;;2.75;1.20;;;;;;;;;;5071615;28;32459;-70
2021/03/26 13:06:08;;;;;;;4.20;1.33;;;;;;;;;;5071584;28;32000;-70
2021/03/26 13:08:36;;;;;;;1.83;1.00;;;;;;;;;;5071684;28;32582;-70
2021/03/26 13:11:08;;;;;;;5.95;1.85;;;;;;;;;;5067952;28;30639;-70
2021/03/26 13:13:36;;;;;;;3.83;1.65;;;;;;;;;;5068775;28;32800;-70
2021/03/26 13:16:08;;;;;;;9.85;2.22;;;;;;;;;;5070574;28;33080;-71
2021/03/26 13:18:43;;;;;;;10.35;1.50;;;;;;;;;;5072054;28;30943;-70
2021/03/26 13:21:21;;;;;;;2.58;1.02;;;;;;;;;;5070059;28;31534;-71
2021/03/26 13:23:48;;;;;;;3.22;1.23;;;;;;;;;;5070982;28;33704;-71
2021/03/26 13:26:17;;;;;;;3.50;1.92;;;;;;;;;;5068233;28;32110;-70
2021/03/26 13:28:46;;;;;;;2.35;1.63;;;;;;;;;;5070491;28;30377;-71
2021/03/26 13:31:14;;;;;;;2.50;1.13;;;;;;;;;;5070850;28;31309;-70
2021/03/26 13:33:52;;;;;;;4.35;1.73;;;;;;;;;;5070943;28;33322;-70
2021/03/26 13:36:26;;;;;;;5.50;1.15;;;;;;;;;;5070855;28;32279;-71
2021/03/26 13:38:55;;;;;;;5.95;1.92;;;;;;;;;;5071580;28;32834;-71
2021/03/26 13:41:32;;;;;;;1.60;1.02;;;;;;;;;;5070821;28;32427;-71
2021/03/26 13:44:19;;;;;;;5.18;1.92;;;;;;;;;;5011555;28;102609;-71
2021/03/26 13:46:50;;;;;;;3.80;1.50;;;;;;;;;;5041016;28;111552;-70
2021/03/26 13:49:25;;;;;;;2.78;1.33;;;;;;;;;;5073533;28;31834;-71
2021/03/26 13:51:54;;;;;;;6.20;1.48;;;;;;;;;;5073505;28;34887;-72
2021/03/26 13:54:20;;;;;;;4.18;2.50;;;;;;;;;;5074363;28;32487;-72
2021/03/26 13:56:50;;;;;;;5.85;2.30;;;;;;;;;;5074505;28;32082;-69
2021/03/26 13:59:16;;;;;;;7.00;2.25;;;;;;;;;;5074700;28;31780;-69
2021/03/26 14:01:48;;;;;;;3.83;1.90;;;;;;;;;;5075581;28;31038;-71
2021/03/26 14:04:17;;;;;;;3.28;1.80;;;;;;;;;;5074377;28;33532;-70
2021/03/26 14:06:46;;;;;;;3.70;2.00;;;;;;;;;;5073393;28;31494;-70
2021/03/26 14:09:23;;;;;;;7.68;2.28;;;;;;;;;;5073956;28;31872;-70
2021/03/26 14:11:52;;;;;;;11.15;2.72;;;;;;;;;;5076302;28;32983;-70
2021/03/26 14:14:21;;;;;;;10.30;2.25;;;;;;;;;;5076396;28;32718;-70
2021/03/26 14:16:52;;;;;;;6.18;3.17;;;;;;;;;;5074944;28;33072;-70
2021/03/26 14:19:26;;;;;;;4.82;2.92;;;;;;;;;;5073384;28;32858;-71
2021/03/26 14:21:58;;;;;;;8.02;2.60;;;;;;;;;;5074403;28;32054;-70
2021/03/26 14:24:36;;;;;;;8.77;3.35;;;;;;;;;;5073664;28;32491;-70
2021/03/26 14:27:15;;;;;;;5.80;2.03;;;;;;;;;;5074804;28;31964;-71
2021/03/26 14:30:19;;;;;;;2.60;1.60;;;;;;;;;;5073022;28;32497;-70
2021/03/26 14:32:58;;;;;;;3.47;1.38;;;;;;;;;;5062316;28;31420;-71
2021/03/26 14:35:26;;;;;;;5.90;2.80;;;;;;;;;;5067744;28;33411;-70
2021/03/26 14:37:53;;;;;;;2.53;1.25;;;;;;;;;;5061450;28;33832;-70
2021/03/26 14:40:25;;;;;;;6.70;2.53;;;;;;;;;;5071611;28;31783;-70
2021/03/26 14:43:01;;;;;;;9.35;2.80;;;;;;;;;;5070282;28;31681;-70
2021/03/26 14:45:56;;;;;;;5.15;2.97;;;;;;;;;;5071977;28;32347;-70
2021/03/26 14:48:29;;;;;;;3.65;2.55;;;;;;;;;;5062564;28;30624;-70
2021/03/26 14:51:06;;;;;;;9.13;3.25;;;;;;;;;;5069659;28;32759;-72
2021/03/26 14:53:36;;;;;;;5.40;2.70;;;;;;;;;;5072285;28;32138;-69
2021/03/26 14:56:04;;;;;;;4.28;2.28;;;;;;;;;;5070630;28;32325;-70
2021/03/26 14:58:36;;;;;;;1.17;1.08;;;;;;;;;;5071814;28;33099;-68
2021/03/26 15:01:07;;;;;;;4.25;2.00;;;;;;;;;;5069757;28;32012;-69
2021/03/26 15:03:33;;;;;;;3.47;2.33;;;;;;;;;;5070993;28;32907;-69
2021/03/26 15:06:02;;;;;;;7.30;2.50;;;;;;;;;;5072074;28;33404;-69
2021/03/26 15:08:37;;;;;;;7.38;2.72;;;;;;;;;;5071007;28;29693;-70
2021/03/26 15:11:04;;;;;;;4.75;2.55;;;;;;;;;;5071528;28;32772;-70
2021/03/26 15:13:35;;;;;;;4.38;2.00;;;;;;;;;;5070615;28;32053;-71
2021/03/26 15:16:06;;;;;;;4.90;2.60;;;;;;;;;;5071389;28;33568;-71
2021/03/26 15:18:47;;;;;;;6.88;2.35;;;;;;;;;;5068357;28;33121;-71